createdAt,value
2023-03-24T00:12:25.530Z,3.77
2023-03-24T00:27:25.962Z,3.72
2023-03-24T00:42:25.990Z,3.8
2023-03-24T00:57:25.234Z,3.59
2023-03-24T01:12:25.483Z,3.83
2023-03-24T01:27:25.766Z,4.58
2023-03-24T01:42:25.248Z,3.74
2023-03-24T01:57:25.403Z,3.54
2023-03-24T02:12:25.551Z,3.75
2023-03-24T02:27:25.608Z,3.69
2023-03-24T02:42:26.009Z,3.61
2023-03-24T02:57:25.285Z,3.54
2023-03-24T03:12:25.524Z,3.44
2023-03-24T03:42:25.170Z,4.51
2023-03-24T04:12:25.927Z,3.83
2023-03-24T04:27:25.466Z,4.89
2023-03-24T04:42:26.262Z,3.53
2023-03-24T04:57:25.308Z,3.37
2023-03-24T05:12:25.724Z,7.7
2023-03-24T05:27:25.286Z,3.49
2023-03-24T05:42:25.564Z,3.37
2023-03-24T05:57:25.606Z,5.77
2023-03-24T06:12:25.541Z,8.74
2023-03-24T06:27:26.088Z,8.49
2023-03-24T06:42:25.489Z,7.85
2023-03-24T07:42:25.892Z,8.47
2023-03-24T08:12:25.921Z,7.34
2023-03-24T08:27:25.775Z,9.32
2023-03-24T08:42:25.582Z,6.69
2023-03-24T08:57:25.661Z,5.12
2023-03-24T09:12:25.437Z,8.89
2023-03-24T09:27:25.197Z,7.86
2023-03-24T09:42:25.602Z,5.35
2023-03-24T09:57:25.683Z,6.92
2023-03-24T10:27:25.982Z,6.55
2023-03-24T10:42:25.769Z,7.46
2023-03-24T10:57:26.835Z,5.79
2023-03-24T11:12:25.628Z,5.92
2023-03-24T11:27:25.848Z,5
2023-03-24T11:42:25.220Z,5.8
2023-03-24T11:57:25.936Z,6.8
2023-03-24T12:42:25.545Z,3.25
2023-03-24T12:57:25.858Z,1.91
2023-03-24T13:12:25.787Z,1.89
2023-03-24T13:27:25.996Z,1.62
2023-03-24T13:57:25.494Z,1.56
2023-03-24T14:12:25.504Z,2.03
2023-03-24T14:27:26.109Z,7.06
2023-03-24T14:42:25.740Z,0.12
2023-03-24T14:57:26.071Z,0.1
2023-03-24T15:12:26.081Z,0.01
2023-03-24T15:42:25.310Z,0
2023-03-24T15:57:25.502Z,0
2023-03-24T16:12:31.087Z,0.06
2023-03-24T16:27:26.313Z,0
2023-03-24T16:57:25.310Z,4.39
2023-03-24T17:12:25.576Z,0.18
2023-03-24T17:27:25.377Z,0.95
2023-03-24T17:42:25.506Z,6.5
2023-03-24T17:57:25.748Z,0.45
2023-03-24T18:27:25.307Z,8.17
2023-03-24T18:42:25.381Z,10.49
2023-03-24T18:57:25.553Z,18.93
2023-03-24T19:57:25.590Z,5.11
2023-03-24T20:12:25.870Z,4.75
2023-03-24T20:27:35.233Z,0.87
2023-03-24T20:42:26.014Z,0.6
2023-03-24T20:57:25.853Z,3.49
2023-03-24T21:12:26.052Z,0.83
2023-03-24T21:57:25.440Z,0.02
2023-03-24T22:12:25.639Z,0.01
2023-03-24T22:27:25.849Z,2.89
2023-03-24T22:42:25.241Z,1.78
2023-03-24T22:57:25.578Z,0.13
2023-03-24T23:12:25.329Z,0.16
2023-03-24T23:27:25.965Z,0.17
2023-03-24T23:42:25.508Z,0
2023-03-24T23:57:25.564Z,0.06
